Hovedside
METAR-TAF:

METAR-TAF

Lufthavner :

Maputo internasjonale lufthavn

Maputo, Mosambik

breddegrad: 25-55S, lengdegrad: 032-34E, høyde over havet: 39 m

Gjeldene værobservasjon

Denne rapporten ble laget for 58 minutter siden, klokken 11:00 UTC
Vind 12 kt fra Øst-nordøst
Temperatur 30°C
Luftfuktighet 55%
Trykk 1012 hPa
Sikt 10 km eller mer
Få skyer i en høyde av 2000 ft

METAR: FQMA 201100Z 07012KT 9999 FEW020 30/20 Q1012 NOSIG

Tid: 13:58 (11:58 UTC)

Varsel

Denne rapporten ble laget for 1 time og 58 minutter siden, klokken 10:00 UTC
Varsel gyldig fra 20. klokken 12 UTC til 21. klokken 18 UTC
Vind 12 kt fra Øst-nordøst
Sikt 10 km eller mer
Spredte skyer i en høyde av 2500 ft
Blir
fra 20. klokken 18 UTC til 20. klokken 20 UTC
Vind 10 kt fra Sør med vindkast opp mot 20 kt
Blir
fra 21. klokken 06 UTC til 21. klokken 08 UTC
Vind 14 kt fra Sør-sørøst

TAF: FQMA 201000Z 2012/2118 07012KT 9999 SCT025 TX34/2013Z TN20/2103Z BECMG 2018/2020 19010G20KT BECMG 2106/2108 16014KT

Værobservasjoner og værvarsel for over 4000 flyplasser (METAR- og TAF-rapporter).

Tilgjengelige stasjoner er representert av de røde og gule prikkene på kartet.

Hold musepekeren over prikken for å se navnet på stasjonen.

Klikk så for å se værobservasjoner og -varsler.

For å forandre kartet kan du klikke på den grønne knappen med svart kryss for å zoome inn, på den grønne knappen med strek for å zoome ut, eller på de grønne pilene for å se tilstøtende kart.


METAR-TAF: